Portada
METAR-TAF:

METAR-TAF

Aeroports :

Hartness State Airport

Springfield, Vermont, Estats Units d'Amèrica

latitud: 43-20-33N, longitud: 072-31-18W, altitud: 175 m

Observació

L'informe es va fer fa 56 minuts, a les 01:54 UTC
Vent calma
Temperatura 17°C
Humitat 82%
Pressió 1013 hPa
Visibilitat: 16.1 km
Cel clar

METAR: KVSF 190154Z AUTO 00000KT 10SM CLR 17/14 A2991 RMK AO2 SLP128 T01670144

Hora: 22:50 (02:50 UTC)


TAF: manca

Observacions i pronòstics meteorològics de més de 4000 aeroports (METAR i TAF).

Les estacions disponibles són els punts grocs i vermells al mapa.

Posi el ratolí al punt desitjat per veure el nom de l'estació.

Feu clic per veure les observacions i els pronòstics meteorològics.

Per canviar el mapa: feu clic els botons verds amb una creu de color negre per apropar; al botó verd amb un guió per allunyar la imatge; o en les fletxes verdes per a mapes adjacents.


METAR-TAF: